sensor_id;sensor_type;location;lat;lon;timestamp;P1;durP1;ratioP1;P2;durP2;ratioP2
29728;SDS011;20055;51.498;11.960;2023-10-09T00:00:31;12.23;;;5.03;;
29728;SDS011;20055;51.498;11.960;2023-10-09T00:03:19;13.45;;;4.38;;
29728;SDS011;20055;51.498;11.960;2023-10-09T00:05:49;11.50;;;4.38;;
29728;SDS011;20055;51.498;11.960;2023-10-09T00:08:19;17.60;;;4.97;;
29728;SDS011;20055;51.498;11.960;2023-10-09T00:11:05;9.63;;;4.40;;
29728;SDS011;20055;51.498;11.960;2023-10-09T00:13:44;14.55;;;4.35;;
29728;SDS011;20055;51.498;11.960;2023-10-09T00:16:15;7.63;;;3.67;;
29728;SDS011;20055;51.498;11.960;2023-10-09T00:18:42;12.35;;;4.20;;
29728;SDS011;20055;51.498;11.960;2023-10-09T00:21:18;11.80;;;3.67;;
29728;SDS011;20055;51.498;11.960;2023-10-09T00:23:49;9.10;;;3.90;;
29728;SDS011;20055;51.498;11.960;2023-10-09T00:26:25;10.98;;;4.78;;
29728;SDS011;20055;51.498;11.960;2023-10-09T00:28:52;14.38;;;5.18;;
29728;SDS011;20055;51.498;11.960;2023-10-09T00:31:18;10.73;;;4.28;;
29728;SDS011;20055;51.498;11.960;2023-10-09T00:36:27;14.60;;;4.40;;
29728;SDS011;20055;51.498;11.960;2023-10-09T00:38:54;14.10;;;4.95;;
29728;SDS011;20055;51.498;11.960;2023-10-09T00:41:23;16.08;;;4.82;;
29728;SDS011;20055;51.498;11.960;2023-10-09T00:43:51;10.18;;;4.95;;
29728;SDS011;20055;51.498;11.960;2023-10-09T00:46:19;17.00;;;5.18;;
29728;SDS011;20055;51.498;11.960;2023-10-09T00:48:47;11.30;;;4.78;;
29728;SDS011;20055;51.498;11.960;2023-10-09T00:51:15;10.15;;;4.65;;
29728;SDS011;20055;51.498;11.960;2023-10-09T00:53:48;11.23;;;4.68;;
29728;SDS011;20055;51.498;11.960;2023-10-09T00:56:19;17.65;;;5.03;;
29728;SDS011;20055;51.498;11.960;2023-10-09T00:58:56;15.15;;;5.25;;
29728;SDS011;20055;51.498;11.960;2023-10-09T01:01:37;7.57;;;4.57;;
29728;SDS011;20055;51.498;11.960;2023-10-09T01:04:10;11.88;;;5.30;;
29728;SDS011;20055;51.498;11.960;2023-10-09T01:06:43;8.70;;;4.65;;
29728;SDS011;20055;51.498;11.960;2023-10-09T01:09:12;10.32;;;4.65;;
29728;SDS011;20055;51.498;11.960;2023-10-09T01:11:40;12.20;;;4.57;;
29728;SDS011;20055;51.498;11.960;2023-10-09T01:14:39;15.57;;;5.47;;
29728;SDS011;20055;51.498;11.960;2023-10-09T01:17:09;12.93;;;5.50;;
29728;SDS011;20055;51.498;11.960;2023-10-09T01:19:36;12.27;;;4.82;;
29728;SDS011;20055;51.498;11.960;2023-10-09T01:22:03;10.88;;;5.40;;
29728;SDS011;20055;51.498;11.960;2023-10-09T01:24:41;13.13;;;5.60;;
29728;SDS011;20055;51.498;11.960;2023-10-09T01:27:08;12.02;;;4.82;;
29728;SDS011;20055;51.498;11.960;2023-10-09T01:29:41;16.60;;;5.28;;
29728;SDS011;20055;51.498;11.960;2023-10-09T01:32:09;11.27;;;4.80;;
29728;SDS011;20055;51.498;11.960;2023-10-09T01:34:43;11.20;;;6.55;;
29728;SDS011;20055;51.498;11.960;2023-10-09T01:42:25;12.23;;;5.38;;
29728;SDS011;20055;51.498;11.960;2023-10-09T01:45:03;13.48;;;5.57;;
29728;SDS011;20055;51.498;11.960;2023-10-09T01:47:53;11.18;;;5.80;;
29728;SDS011;20055;51.498;11.960;2023-10-09T01:50:22;17.25;;;5.80;;
29728;SDS011;20055;51.498;11.960;2023-10-09T01:53:01;12.07;;;5.68;;
29728;SDS011;20055;51.498;11.960;2023-10-09T01:55:29;8.73;;;6.00;;
29728;SDS011;20055;51.498;11.960;2023-10-09T01:58:05;11.52;;;5.53;;
29728;SDS011;20055;51.498;11.960;2023-10-09T02:00:43;10.07;;;5.50;;
29728;SDS011;20055;51.498;11.960;2023-10-09T02:03:15;13.23;;;4.78;;
29728;SDS011;20055;51.498;11.960;2023-10-09T02:05:41;9.80;;;4.85;;
29728;SDS011;20055;51.498;11.960;2023-10-09T02:08:08;9.13;;;5.35;;
29728;SDS011;20055;51.498;11.960;2023-10-09T02:10:34;11.80;;;5.68;;
29728;SDS011;20055;51.498;11.960;2023-10-09T02:13:05;15.15;;;5.55;;
29728;SDS011;20055;51.498;11.960;2023-10-09T02:15:43;12.60;;;5.18;;
29728;SDS011;20055;51.498;11.960;2023-10-09T02:18:16;9.90;;;5.22;;
29728;SDS011;20055;51.498;11.960;2023-10-09T02:20:44;11.75;;;6.00;;
29728;SDS011;20055;51.498;11.960;2023-10-09T02:23:14;10.57;;;5.18;;
29728;SDS011;20055;51.498;11.960;2023-10-09T02:25:46;9.75;;;5.25;;
29728;SDS011;20055;51.498;11.960;2023-10-09T02:28:13;10.23;;;5.22;;
29728;SDS011;20055;51.498;11.960;2023-10-09T02:30:45;10.63;;;5.70;;
29728;SDS011;20055;51.498;11.960;2023-10-09T02:35:53;14.77;;;5.85;;
29728;SDS011;20055;51.498;11.960;2023-10-09T02:38:20;11.90;;;5.25;;
29728;SDS011;20055;51.498;11.960;2023-10-09T02:40:52;12.27;;;5.40;;
29728;SDS011;20055;51.498;11.960;2023-10-09T02:43:24;11.70;;;6.32;;
29728;SDS011;20055;51.498;11.960;2023-10-09T02:45:52;11.15;;;5.57;;
29728;SDS011;20055;51.498;11.960;2023-10-09T02:48:18;11.00;;;4.82;;
29728;SDS011;20055;51.498;11.960;2023-10-09T02:50:46;13.45;;;6.60;;
29728;SDS011;20055;51.498;11.960;2023-10-09T02:53:13;12.38;;;5.65;;
29728;SDS011;20055;51.498;11.960;2023-10-09T02:55:45;10.68;;;5.20;;
29728;SDS011;20055;51.498;11.960;2023-10-09T02:58:30;13.65;;;5.30;;
29728;SDS011;20055;51.498;11.960;2023-10-09T03:00:58;12.13;;;5.75;;
29728;SDS011;20055;51.498;11.960;2023-10-09T03:03:25;12.88;;;5.88;;
29728;SDS011;20055;51.498;11.960;2023-10-09T03:05:53;15.88;;;6.30;;
29728;SDS011;20055;51.498;11.960;2023-10-09T03:08:21;11.88;;;5.50;;
29728;SDS011;20055;51.498;11.960;2023-10-09T03:10:47;11.57;;;5.68;;
29728;SDS011;20055;51.498;11.960;2023-10-09T03:13:13;12.80;;;5.53;;
29728;SDS011;20055;51.498;11.960;2023-10-09T03:15:45;11.32;;;5.88;;
29728;SDS011;20055;51.498;11.960;2023-10-09T03:18:13;10.23;;;6.32;;
29728;SDS011;20055;51.498;11.960;2023-10-09T03:20:40;10.73;;;6.03;;
29728;SDS011;20055;51.498;11.960;2023-10-09T03:23:07;13.43;;;6.03;;
29728;SDS011;20055;51.498;11.960;2023-10-09T03:25:35;13.38;;;5.70;;
29728;SDS011;20055;51.498;11.960;2023-10-09T03:28:03;12.40;;;5.97;;
29728;SDS011;20055;51.498;11.960;2023-10-09T03:30:30;11.88;;;4.97;;
29728;SDS011;20055;51.498;11.960;2023-10-09T03:32:58;13.38;;;5.93;;
29728;SDS011;20055;51.498;11.960;2023-10-09T03:35:26;9.35;;;5.78;;
29728;SDS011;20055;51.498;11.960;2023-10-09T03:37:56;9.57;;;5.68;;
29728;SDS011;20055;51.498;11.960;2023-10-09T03:40:28;10.10;;;6.13;;
29728;SDS011;20055;51.498;11.960;2023-10-09T03:42:54;10.80;;;5.82;;
29728;SDS011;20055;51.498;11.960;2023-10-09T03:45:20;11.73;;;5.85;;
29728;SDS011;20055;51.498;11.960;2023-10-09T03:47:52;10.75;;;6.35;;
29728;SDS011;20055;51.498;11.960;2023-10-09T03:50:42;9.18;;;6.55;;
29728;SDS011;20055;51.498;11.960;2023-10-09T03:53:09;19.63;;;6.65;;
29728;SDS011;20055;51.498;11.960;2023-10-09T03:55:38;11.55;;;5.75;;
29728;SDS011;20055;51.498;11.960;2023-10-09T03:58:06;14.23;;;5.93;;
29728;SDS011;20055;51.498;11.960;2023-10-09T04:00:33;11.77;;;6.45;;
29728;SDS011;20055;51.498;11.960;2023-10-09T04:03:10;10.57;;;5.78;;
29728;SDS011;20055;51.498;11.960;2023-10-09T04:05:37;14.88;;;6.90;;
29728;SDS011;20055;51.498;11.960;2023-10-09T04:08:07;9.27;;;6.07;;
29728;SDS011;20055;51.498;11.960;2023-10-09T04:10:42;10.45;;;6.03;;
29728;SDS011;20055;51.498;11.960;2023-10-09T04:13:17;9.93;;;5.20;;
29728;SDS011;20055;51.498;11.960;2023-10-09T04:15:51;11.20;;;5.53;;
29728;SDS011;20055;51.498;11.960;2023-10-09T04:18:19;16.80;;;6.72;;
29728;SDS011;20055;51.498;11.960;2023-10-09T04:20:46;13.05;;;6.18;;
29728;SDS011;20055;51.498;11.960;2023-10-09T04:23:33;12.55;;;6.28;;
29728;SDS011;20055;51.498;11.960;2023-10-09T04:26:16;13.38;;;5.57;;
29728;SDS011;20055;51.498;11.960;2023-10-09T04:28:42;15.20;;;6.47;;
29728;SDS011;20055;51.498;11.960;2023-10-09T04:31:08;10.90;;;5.97;;
29728;SDS011;20055;51.498;11.960;2023-10-09T04:33:35;9.55;;;5.68;;
29728;SDS011;20055;51.498;11.960;2023-10-09T04:36:08;10.77;;;6.55;;
29728;SDS011;20055;51.498;11.960;2023-10-09T04:38:45;7.65;;;5.25;;
29728;SDS011;20055;51.498;11.960;2023-10-09T04:41:30;12.52;;;6.07;;
29728;SDS011;20055;51.498;11.960;2023-10-09T04:44:18;12.30;;;5.50;;
29728;SDS011;20055;51.498;11.960;2023-10-09T04:46:45;14.35;;;6.13;;
29728;SDS011;20055;51.498;11.960;2023-10-09T04:49:31;10.77;;;6.00;;
29728;SDS011;20055;51.498;11.960;2023-10-09T04:52:15;8.98;;;5.55;;
29728;SDS011;20055;51.498;11.960;2023-10-09T04:54:53;8.85;;;5.15;;
29728;SDS011;20055;51.498;11.960;2023-10-09T04:57:38;8.48;;;4.93;;
29728;SDS011;20055;51.498;11.960;2023-10-09T05:00:09;9.98;;;5.93;;
29728;SDS011;20055;51.498;11.960;2023-10-09T05:02:56;12.68;;;5.75;;
29728;SDS011;20055;51.498;11.960;2023-10-09T05:05:25;12.02;;;5.80;;
29728;SDS011;20055;51.498;11.960;2023-10-09T05:08:11;11.63;;;6.47;;
29728;SDS011;20055;51.498;11.960;2023-10-09T05:10:48;11.82;;;5.82;;
29728;SDS011;20055;51.498;11.960;2023-10-09T05:13:26;9.93;;;5.25;;
29728;SDS011;20055;51.498;11.960;2023-10-09T05:18:59;12.30;;;5.22;;
29728;SDS011;20055;51.498;11.960;2023-10-09T05:21:26;14.13;;;5.82;;
29728;SDS011;20055;51.498;11.960;2023-10-09T05:23:57;10.10;;;6.03;;
29728;SDS011;20055;51.498;11.960;2023-10-09T05:26:56;14.07;;;5.22;;
29728;SDS011;20055;51.498;11.960;2023-10-09T05:29:42;10.00;;;5.20;;
29728;SDS011;20055;51.498;11.960;2023-10-09T05:32:35;15.77;;;6.72;;
29728;SDS011;20055;51.498;11.960;2023-10-09T05:35:14;8.98;;;5.40;;
29728;SDS011;20055;51.498;11.960;2023-10-09T05:37:55;8.07;;;4.97;;
29728;SDS011;20055;51.498;11.960;2023-10-09T05:40:41;10.32;;;5.47;;
29728;SDS011;20055;51.498;11.960;2023-10-09T05:43:09;13.75;;;6.97;;
29728;SDS011;20055;51.498;11.960;2023-10-09T05:45:56;12.77;;;5.78;;
29728;SDS011;20055;51.498;11.960;2023-10-09T05:48:35;12.80;;;5.20;;
29728;SDS011;20055;51.498;11.960;2023-10-09T05:51:04;14.30;;;5.75;;
29728;SDS011;20055;51.498;11.960;2023-10-09T05:54:00;13.75;;;5.75;;
29728;SDS011;20055;51.498;11.960;2023-10-09T05:56:55;15.68;;;7.07;;
29728;SDS011;20055;51.498;11.960;2023-10-09T05:59:39;17.75;;;6.13;;
29728;SDS011;20055;51.498;11.960;2023-10-09T06:02:24;15.32;;;6.05;;
29728;SDS011;20055;51.498;11.960;2023-10-09T06:05:09;16.13;;;5.97;;
29728;SDS011;20055;51.498;11.960;2023-10-09T06:07:56;15.57;;;6.53;;
29728;SDS011;20055;51.498;11.960;2023-10-09T06:10:32;16.83;;;5.82;;
29728;SDS011;20055;51.498;11.960;2023-10-09T06:13:07;19.77;;;6.30;;
29728;SDS011;20055;51.498;11.960;2023-10-09T06:15:52;17.35;;;6.47;;
29728;SDS011;20055;51.498;11.960;2023-10-09T06:18:35;17.48;;;6.93;;
29728;SDS011;20055;51.498;11.960;2023-10-09T06:21:01;20.73;;;6.97;;
29728;SDS011;20055;51.498;11.960;2023-10-09T06:23:46;17.77;;;7.35;;
29728;SDS011;20055;51.498;11.960;2023-10-09T06:26:33;17.63;;;6.95;;
29728;SDS011;20055;51.498;11.960;2023-10-09T06:28:59;15.95;;;7.40;;
29728;SDS011;20055;51.498;11.960;2023-10-09T06:31:41;20.10;;;7.18;;
29728;SDS011;20055;51.498;11.960;2023-10-09T06:34:43;15.98;;;7.70;;
29728;SDS011;20055;51.498;11.960;2023-10-09T06:37:21;15.70;;;7.63;;
29728;SDS011;20055;51.498;11.960;2023-10-09T06:39:52;15.07;;;7.30;;
29728;SDS011;20055;51.498;11.960;2023-10-09T06:45:12;17.85;;;6.88;;
29728;SDS011;20055;51.498;11.960;2023-10-09T06:47:47;16.55;;;7.72;;
29728;SDS011;20055;51.498;11.960;2023-10-09T06:50:36;17.35;;;7.95;;
29728;SDS011;20055;51.498;11.960;2023-10-09T06:53:20;21.48;;;8.60;;
29728;SDS011;20055;51.498;11.960;2023-10-09T06:55:51;21.17;;;8.82;;
29728;SDS011;20055;51.498;11.960;2023-10-09T06:58:20;24.30;;;9.13;;
29728;SDS011;20055;51.498;11.960;2023-10-09T07:01:07;24.75;;;9.85;;
29728;SDS011;20055;51.498;11.960;2023-10-09T07:03:50;23.73;;;8.25;;
29728;SDS011;20055;51.498;11.960;2023-10-09T07:06:25;23.55;;;9.02;;
29728;SDS011;20055;51.498;11.960;2023-10-09T07:09:01;23.95;;;8.73;;
29728;SDS011;20055;51.498;11.960;2023-10-09T07:11:48;28.75;;;9.65;;
29728;SDS011;20055;51.498;11.960;2023-10-09T07:19:43;26.58;;;10.45;;
29728;SDS011;20055;51.498;11.960;2023-10-09T07:22:13;18.33;;;8.67;;
29728;SDS011;20055;51.498;11.960;2023-10-09T07:25:02;18.85;;;8.60;;
29728;SDS011;20055;51.498;11.960;2023-10-09T07:27:40;17.05;;;7.95;;
29728;SDS011;20055;51.498;11.960;2023-10-09T07:30:18;23.02;;;9.32;;
29728;SDS011;20055;51.498;11.960;2023-10-09T07:33:12;24.83;;;9.52;;
29728;SDS011;20055;51.498;11.960;2023-10-09T07:35:47;20.52;;;10.15;;
29728;SDS011;20055;51.498;11.960;2023-10-09T07:38:18;23.52;;;10.75;;
29728;SDS011;20055;51.498;11.960;2023-10-09T07:40:55;30.92;;;10.32;;
29728;SDS011;20055;51.498;11.960;2023-10-09T07:43:35;26.20;;;9.50;;
29728;SDS011;20055;51.498;11.960;2023-10-09T07:46:06;24.67;;;9.85;;
29728;SDS011;20055;51.498;11.960;2023-10-09T07:48:52;26.48;;;10.63;;
29728;SDS011;20055;51.498;11.960;2023-10-09T07:51:22;26.30;;;11.15;;
29728;SDS011;20055;51.498;11.960;2023-10-09T07:53:57;30.58;;;10.25;;
29728;SDS011;20055;51.498;11.960;2023-10-09T07:56:37;24.08;;;10.02;;
29728;SDS011;20055;51.498;11.960;2023-10-09T07:59:11;19.30;;;9.55;;
29728;SDS011;20055;51.498;11.960;2023-10-09T08:01:43;22.20;;;9.82;;
29728;SDS011;20055;51.498;11.960;2023-10-09T08:04:25;19.35;;;9.13;;
29728;SDS011;20055;51.498;11.960;2023-10-09T08:07:04;31.42;;;10.73;;
29728;SDS011;20055;51.498;11.960;2023-10-09T08:09:45;20.08;;;9.15;;
29728;SDS011;20055;51.498;11.960;2023-10-09T08:12:23;25.85;;;9.80;;
29728;SDS011;20055;51.498;11.960;2023-10-09T08:15:07;20.48;;;9.63;;
29728;SDS011;20055;51.498;11.960;2023-10-09T08:17:51;18.80;;;9.50;;
29728;SDS011;20055;51.498;11.960;2023-10-09T08:20:39;27.48;;;9.55;;
29728;SDS011;20055;51.498;11.960;2023-10-09T08:23:24;26.00;;;10.00;;
29728;SDS011;20055;51.498;11.960;2023-10-09T08:26:02;25.25;;;9.05;;
29728;SDS011;20055;51.498;11.960;2023-10-09T08:28:53;25.70;;;9.85;;
29728;SDS011;20055;51.498;11.960;2023-10-09T08:31:41;26.58;;;10.20;;
29728;SDS011;20055;51.498;11.960;2023-10-09T08:34:22;28.02;;;10.45;;
29728;SDS011;20055;51.498;11.960;2023-10-09T08:36:52;17.58;;;9.43;;
29728;SDS011;20055;51.498;11.960;2023-10-09T08:39:19;21.17;;;9.70;;
29728;SDS011;20055;51.498;11.960;2023-10-09T08:41:53;28.60;;;9.57;;
29728;SDS011;20055;51.498;11.960;2023-10-09T08:44:28;24.00;;;9.85;;
29728;SDS011;20055;51.498;11.960;2023-10-09T08:46:57;19.65;;;8.93;;
29728;SDS011;20055;51.498;11.960;2023-10-09T08:49:24;27.75;;;10.65;;
29728;SDS011;20055;51.498;11.960;2023-10-09T08:51:51;31.27;;;10.13;;
29728;SDS011;20055;51.498;11.960;2023-10-09T08:54:18;23.58;;;10.07;;
29728;SDS011;20055;51.498;11.960;2023-10-09T08:56:45;27.38;;;10.15;;
29728;SDS011;20055;51.498;11.960;2023-10-09T08:59:15;27.75;;;10.90;;
29728;SDS011;20055;51.498;11.960;2023-10-09T09:07:05;23.63;;;9.50;;
29728;SDS011;20055;51.498;11.960;2023-10-09T09:09:59;21.13;;;10.45;;
29728;SDS011;20055;51.498;11.960;2023-10-09T09:12:47;25.63;;;9.48;;
29728;SDS011;20055;51.498;11.960;2023-10-09T09:15:19;23.25;;;10.10;;
29728;SDS011;20055;51.498;11.960;2023-10-09T09:17:48;30.70;;;10.15;;
29728;SDS011;20055;51.498;11.960;2023-10-09T09:20:24;24.52;;;11.30;;
29728;SDS011;20055;51.498;11.960;2023-10-09T09:23:02;25.75;;;11.52;;
29728;SDS011;20055;51.498;11.960;2023-10-09T09:25:39;30.67;;;10.98;;
29728;SDS011;20055;51.498;11.960;2023-10-09T09:28:11;33.40;;;11.70;;
29728;SDS011;20055;51.498;11.960;2023-10-09T09:30:47;25.63;;;11.15;;
29728;SDS011;20055;51.498;11.960;2023-10-09T09:33:17;29.55;;;11.73;;
29728;SDS011;20055;51.498;11.960;2023-10-09T09:36:03;28.95;;;11.57;;
29728;SDS011;20055;51.498;11.960;2023-10-09T09:38:31;22.55;;;10.98;;
29728;SDS011;20055;51.498;11.960;2023-10-09T09:41:08;24.42;;;11.23;;
29728;SDS011;20055;51.498;11.960;2023-10-09T09:43:36;34.15;;;11.93;;
29728;SDS011;20055;51.498;11.960;2023-10-09T09:46:06;28.75;;;11.45;;
29728;SDS011;20055;51.498;11.960;2023-10-09T09:48:39;27.15;;;11.10;;
29728;SDS011;20055;51.498;11.960;2023-10-09T09:51:10;24.90;;;13.15;;
29728;SDS011;20055;51.498;11.960;2023-10-09T09:53:39;22.43;;;10.90;;
29728;SDS011;20055;51.498;11.960;2023-10-09T09:56:06;30.20;;;11.38;;
29728;SDS011;20055;51.498;11.960;2023-10-09T09:58:40;23.85;;;11.90;;
29728;SDS011;20055;51.498;11.960;2023-10-09T10:01:12;29.05;;;11.32;;
29728;SDS011;20055;51.498;11.960;2023-10-09T10:03:47;29.50;;;12.25;;
29728;SDS011;20055;51.498;11.960;2023-10-09T10:06:19;23.30;;;10.88;;
29728;SDS011;20055;51.498;11.960;2023-10-09T10:08:47;25.02;;;10.88;;
29728;SDS011;20055;51.498;11.960;2023-10-09T10:14:20;34.13;;;12.23;;
29728;SDS011;20055;51.498;11.960;2023-10-09T10:17:00;27.55;;;12.15;;
29728;SDS011;20055;51.498;11.960;2023-10-09T10:22:30;28.35;;;12.50;;
29728;SDS011;20055;51.498;11.960;2023-10-09T10:24:56;28.02;;;11.93;;
29728;SDS011;20055;51.498;11.960;2023-10-09T10:27:26;26.73;;;11.00;;
29728;SDS011;20055;51.498;11.960;2023-10-09T10:30:26;28.70;;;12.50;;
29728;SDS011;20055;51.498;11.960;2023-10-09T10:32:56;24.10;;;11.27;;
29728;SDS011;20055;51.498;11.960;2023-10-09T10:35:35;25.70;;;13.18;;
29728;SDS011;20055;51.498;11.960;2023-10-09T10:43:40;26.52;;;12.95;;
29728;SDS011;20055;51.498;11.960;2023-10-09T10:46:27;26.75;;;12.38;;
29728;SDS011;20055;51.498;11.960;2023-10-09T10:51:47;31.25;;;13.55;;
29728;SDS011;20055;51.498;11.960;2023-10-09T10:54:22;32.42;;;13.07;;
29728;SDS011;20055;51.498;11.960;2023-10-09T10:57:21;29.95;;;14.13;;
29728;SDS011;20055;51.498;11.960;2023-10-09T11:00:09;27.20;;;13.30;;
29728;SDS011;20055;51.498;11.960;2023-10-09T11:03:00;30.73;;;13.93;;
29728;SDS011;20055;51.498;11.960;2023-10-09T11:05:44;28.52;;;13.85;;
29728;SDS011;20055;51.498;11.960;2023-10-09T11:08:17;29.58;;;14.00;;
29728;SDS011;20055;51.498;11.960;2023-10-09T11:10:49;34.58;;;14.63;;
29728;SDS011;20055;51.498;11.960;2023-10-09T11:13:25;26.45;;;14.20;;
29728;SDS011;20055;51.498;11.960;2023-10-09T11:16:00;33.58;;;15.02;;
29728;SDS011;20055;51.498;11.960;2023-10-09T11:18:54;39.88;;;15.40;;
29728;SDS011;20055;51.498;11.960;2023-10-09T11:21:22;43.75;;;15.27;;
29728;SDS011;20055;51.498;11.960;2023-10-09T11:23:57;29.88;;;14.23;;
29728;SDS011;20055;51.498;11.960;2023-10-09T11:26:24;34.15;;;15.70;;
29728;SDS011;20055;51.498;11.960;2023-10-09T11:32:02;32.90;;;15.45;;
29728;SDS011;20055;51.498;11.960;2023-10-09T11:34:31;32.72;;;14.38;;
29728;SDS011;20055;51.498;11.960;2023-10-09T11:36:59;29.45;;;14.55;;
29728;SDS011;20055;51.498;11.960;2023-10-09T11:39:30;31.23;;;14.93;;
29728;SDS011;20055;51.498;11.960;2023-10-09T11:42:09;31.48;;;14.70;;
29728;SDS011;20055;51.498;11.960;2023-10-09T11:44:41;36.30;;;15.18;;
29728;SDS011;20055;51.498;11.960;2023-10-09T11:47:11;36.17;;;15.52;;
29728;SDS011;20055;51.498;11.960;2023-10-09T11:49:50;34.60;;;16.40;;
29728;SDS011;20055;51.498;11.960;2023-10-09T11:52:32;34.17;;;15.60;;
29728;SDS011;20055;51.498;11.960;2023-10-09T11:55:02;35.45;;;15.32;;
29728;SDS011;20055;51.498;11.960;2023-10-09T11:57:29;34.35;;;15.73;;
29728;SDS011;20055;51.498;11.960;2023-10-09T11:59:59;41.20;;;17.65;;
29728;SDS011;20055;51.498;11.960;2023-10-09T12:02:26;33.10;;;16.33;;
29728;SDS011;20055;51.498;11.960;2023-10-09T12:04:53;37.50;;;16.42;;
29728;SDS011;20055;51.498;11.960;2023-10-09T12:07:22;37.38;;;16.23;;
29728;SDS011;20055;51.498;11.960;2023-10-09T12:09:51;36.13;;;15.32;;
29728;SDS011;20055;51.498;11.960;2023-10-09T12:12:22;38.90;;;15.98;;
29728;SDS011;20055;51.498;11.960;2023-10-09T12:14:52;33.55;;;14.15;;
29728;SDS011;20055;51.498;11.960;2023-10-09T12:17:18;35.58;;;14.52;;
29728;SDS011;20055;51.498;11.960;2023-10-09T12:19:45;28.48;;;14.35;;
29728;SDS011;20055;51.498;11.960;2023-10-09T12:22:13;31.67;;;16.10;;
29728;SDS011;20055;51.498;11.960;2023-10-09T12:24:42;28.73;;;15.07;;
29728;SDS011;20055;51.498;11.960;2023-10-09T12:27:09;33.50;;;16.85;;
29728;SDS011;20055;51.498;11.960;2023-10-09T12:29:38;32.72;;;15.57;;
29728;SDS011;20055;51.498;11.960;2023-10-09T12:32:10;34.75;;;15.38;;
29728;SDS011;20055;51.498;11.960;2023-10-09T12:34:37;30.17;;;15.05;;
29728;SDS011;20055;51.498;11.960;2023-10-09T12:37:05;35.33;;;15.38;;
29728;SDS011;20055;51.498;11.960;2023-10-09T12:39:32;35.83;;;14.73;;
29728;SDS011;20055;51.498;11.960;2023-10-09T12:42:06;29.75;;;14.23;;
29728;SDS011;20055;51.498;11.960;2023-10-09T12:44:32;30.92;;;16.42;;
29728;SDS011;20055;51.498;11.960;2023-10-09T12:47:05;30.63;;;14.73;;
29728;SDS011;20055;51.498;11.960;2023-10-09T12:49:32;27.20;;;14.20;;
29728;SDS011;20055;51.498;11.960;2023-10-09T12:51:59;28.70;;;14.38;;
29728;SDS011;20055;51.498;11.960;2023-10-09T12:54:25;29.85;;;14.00;;
29728;SDS011;20055;51.498;11.960;2023-10-09T12:56:56;27.73;;;13.85;;
29728;SDS011;20055;51.498;11.960;2023-10-09T12:59:23;31.30;;;14.82;;
29728;SDS011;20055;51.498;11.960;2023-10-09T13:01:50;33.33;;;14.85;;
29728;SDS011;20055;51.498;11.960;2023-10-09T13:04:23;28.00;;;14.35;;
29728;SDS011;20055;51.498;11.960;2023-10-09T13:06:54;28.40;;;14.32;;
29728;SDS011;20055;51.498;11.960;2023-10-09T13:09:27;28.02;;;13.60;;
29728;SDS011;20055;51.498;11.960;2023-10-09T13:12:16;28.10;;;13.85;;
29728;SDS011;20055;51.498;11.960;2023-10-09T13:14:46;29.00;;;15.15;;
29728;SDS011;20055;51.498;11.960;2023-10-09T13:17:15;30.55;;;14.82;;
29728;SDS011;20055;51.498;11.960;2023-10-09T13:19:42;37.22;;;17.10;;
29728;SDS011;20055;51.498;11.960;2023-10-09T13:22:09;34.90;;;14.90;;
29728;SDS011;20055;51.498;11.960;2023-10-09T13:24:39;32.92;;;14.80;;
29728;SDS011;20055;51.498;11.960;2023-10-09T13:27:05;29.38;;;14.43;;
29728;SDS011;20055;51.498;11.960;2023-10-09T13:29:36;31.03;;;14.73;;
29728;SDS011;20055;51.498;11.960;2023-10-09T13:32:06;27.70;;;14.95;;
29728;SDS011;20055;51.498;11.960;2023-10-09T13:34:39;25.88;;;14.00;;
29728;SDS011;20055;51.498;11.960;2023-10-09T13:37:12;29.25;;;14.32;;
29728;SDS011;20055;51.498;11.960;2023-10-09T13:39:40;32.78;;;15.82;;
29728;SDS011;20055;51.498;11.960;2023-10-09T13:42:17;31.35;;;15.63;;
29728;SDS011;20055;51.498;11.960;2023-10-09T13:44:44;31.70;;;15.55;;
29728;SDS011;20055;51.498;11.960;2023-10-09T13:47:10;34.55;;;15.93;;
29728;SDS011;20055;51.498;11.960;2023-10-09T13:49:45;33.58;;;15.50;;
29728;SDS011;20055;51.498;11.960;2023-10-09T13:52:11;32.15;;;15.10;;
29728;SDS011;20055;51.498;11.960;2023-10-09T13:54:44;28.10;;;14.75;;
29728;SDS011;20055;51.498;11.960;2023-10-09T13:57:15;26.92;;;14.32;;
29728;SDS011;20055;51.498;11.960;2023-10-09T13:59:42;26.48;;;15.15;;
29728;SDS011;20055;51.498;11.960;2023-10-09T14:02:18;30.20;;;14.50;;
29728;SDS011;20055;51.498;11.960;2023-10-09T14:04:47;27.70;;;13.93;;
29728;SDS011;20055;51.498;11.960;2023-10-09T14:07:13;26.95;;;14.38;;
29728;SDS011;20055;51.498;11.960;2023-10-09T14:09:43;27.10;;;13.77;;
29728;SDS011;20055;51.498;11.960;2023-10-09T14:12:09;26.35;;;13.55;;
29728;SDS011;20055;51.498;11.960;2023-10-09T14:14:36;25.98;;;12.80;;
29728;SDS011;20055;51.498;11.960;2023-10-09T14:17:13;28.33;;;13.02;;
29728;SDS011;20055;51.498;11.960;2023-10-09T14:19:40;23.35;;;13.35;;
29728;SDS011;20055;51.498;11.960;2023-10-09T14:22:09;25.67;;;13.07;;
29728;SDS011;20055;51.498;11.960;2023-10-09T14:24:36;26.05;;;12.70;;
29728;SDS011;20055;51.498;11.960;2023-10-09T14:27:04;29.55;;;13.00;;
29728;SDS011;20055;51.498;11.960;2023-10-09T14:29:32;28.63;;;14.00;;
29728;SDS011;20055;51.498;11.960;2023-10-09T14:31:58;22.63;;;12.93;;
29728;SDS011;20055;51.498;11.960;2023-10-09T14:34:28;25.42;;;11.98;;
29728;SDS011;20055;51.498;11.960;2023-10-09T14:36:59;30.50;;;14.70;;
29728;SDS011;20055;51.498;11.960;2023-10-09T14:39:29;26.98;;;14.60;;
29728;SDS011;20055;51.498;11.960;2023-10-09T14:41:55;30.10;;;13.15;;
29728;SDS011;20055;51.498;11.960;2023-10-09T14:44:25;35.55;;;14.63;;
29728;SDS011;20055;51.498;11.960;2023-10-09T14:46:54;32.70;;;14.50;;
29728;SDS011;20055;51.498;11.960;2023-10-09T14:49:21;33.67;;;14.93;;
29728;SDS011;20055;51.498;11.960;2023-10-09T14:51:47;30.70;;;13.85;;
29728;SDS011;20055;51.498;11.960;2023-10-09T14:54:13;28.05;;;13.80;;
29728;SDS011;20055;51.498;11.960;2023-10-09T14:56:44;33.58;;;14.50;;
29728;SDS011;20055;51.498;11.960;2023-10-09T14:59:11;25.27;;;12.93;;
29728;SDS011;20055;51.498;11.960;2023-10-09T15:01:37;26.92;;;13.68;;
29728;SDS011;20055;51.498;11.960;2023-10-09T15:04:04;23.52;;;12.77;;
29728;SDS011;20055;51.498;11.960;2023-10-09T15:06:30;29.70;;;13.40;;
29728;SDS011;20055;51.498;11.960;2023-10-09T15:08:57;30.80;;;13.35;;
29728;SDS011;20055;51.498;11.960;2023-10-09T15:11:33;29.33;;;13.75;;
29728;SDS011;20055;51.498;11.960;2023-10-09T15:14:03;27.27;;;14.65;;
29728;SDS011;20055;51.498;11.960;2023-10-09T15:16:31;27.70;;;15.43;;
29728;SDS011;20055;51.498;11.960;2023-10-09T15:18:58;32.28;;;13.45;;
29728;SDS011;20055;51.498;11.960;2023-10-09T15:21:30;25.70;;;11.80;;
29728;SDS011;20055;51.498;11.960;2023-10-09T15:23:59;31.48;;;13.82;;
29728;SDS011;20055;51.498;11.960;2023-10-09T15:26:25;34.05;;;14.13;;
29728;SDS011;20055;51.498;11.960;2023-10-09T15:29:00;26.90;;;13.35;;
29728;SDS011;20055;51.498;11.960;2023-10-09T15:31:29;24.80;;;13.80;;
29728;SDS011;20055;51.498;11.960;2023-10-09T15:33:58;27.98;;;13.35;;
29728;SDS011;20055;51.498;11.960;2023-10-09T15:36:25;32.38;;;13.20;;